Time;durP1;ratioP1;P1;durP2;ratioP2;P2;SDS_P1;SDS_P2;PMS_P1;PMS_P2;Temp;Humidity;BMP_temperature;BMP_pressure;BME280_temperature;BME280_humidity;BME280_pressure;Samples;Min_cycle;Max_cycle;Signal;HPM_P1;HPM_P2
2022/01/21 00:01:44;;;;;;;;;;;;;;;18.82;22.07;101311.69;5010121;28;805;-70
2022/01/21 00:04:10;;;;;;;;;;;;;;;17.64;22.73;101317.53;5010248;28;982;-70
2022/01/21 00:06:38;;;;;;;;;;;;;;;17.67;22.80;101316.34;5010205;28;1299;-72
2022/01/21 00:09:04;;;;;;;;;;;;;;;16.72;23.19;101317.47;5008892;28;1183;-71
2022/01/21 00:11:33;;;;;;;;;;;;;;;16.49;23.85;101318.84;5012379;28;979;-72
2022/01/21 00:14:00;;;;;;;;;;;;;;;17.65;22.27;101312.88;5013628;28;1910;-71
2022/01/21 00:16:27;;;;;;;;;;;;;;;18.10;22.02;101313.84;5013589;28;1386;-72
2022/01/21 00:18:57;;;;;;;;;;;;;;;17.77;22.34;101319.88;5013523;28;919;-70
2022/01/21 00:32:22;;;;;;;;;;;;;;;18.11;21.33;101330.16;4995870;28;959;-71
2022/01/21 00:34:48;;;;;;;;;;;;;;;16.88;22.65;101346.97;5012945;28;1914;-70
2022/01/21 00:37:14;;;;;;;;;;;;;;;16.78;23.34;101345.28;5013033;28;1340;-70
2022/01/21 00:39:42;;;;;;;;;;;;;;;18.16;21.67;101341.53;5012088;28;998;-72
2022/01/21 00:42:25;;;;;;;;;;;;;;;17.54;21.79;101342.31;5011957;28;1391;-73
2022/01/21 00:44:51;;;;;;;;;;;;;;;18.31;20.83;101350.03;5011919;28;852;-71
2022/01/21 00:47:18;;;;;;;;;;;;;;;17.51;21.76;101355.47;5011823;28;1411;-71
2022/01/21 00:49:44;;;;;;;;;;;;;;;17.48;22.23;101367.63;5011994;28;998;-72
2022/01/21 00:52:11;;;;;;;;;;;;;;;17.94;21.54;101359.34;5012925;28;831;-70
2022/01/21 00:54:40;;;;;;;;;;;;;;;16.52;22.96;101366.00;5011382;28;1915;-72
2022/01/21 00:57:06;;;;;;;;;;;;;;;17.51;21.85;101378.28;5012425;28;1312;-72
2022/01/21 00:59:34;;;;;;;;;;;;;;;15.96;23.06;101366.81;5017449;28;799;-73
2022/01/21 01:02:00;;;;;;;;;;;;;;;16.48;22.90;101361.81;5014944;28;1078;-71
2022/01/21 01:04:27;;;;;;;;;;;;;;;16.63;22.48;101375.91;5012470;28;960;-72
2022/01/21 01:06:53;;;;;;;;;;;;;;;16.57;23.10;101388.34;5012765;28;1323;-72
2022/01/21 01:09:20;;;;;;;;;;;;;;;16.91;22.44;101373.25;5011793;28;1006;-72
2022/01/21 01:11:55;;;;;;;;;;;;;;;17.00;22.42;101377.84;5011419;28;848;-69
2022/01/21 01:19:58;;;;;;;;;;;;;;;16.90;22.31;101374.28;5011165;28;1003;-71
2022/01/21 01:22:32;;;;;;;;;;;;;;;17.08;21.79;101388.06;5010712;28;868;-72
2022/01/21 01:27:44;;;;;;;;;;;;;;;17.39;21.98;101380.38;5011011;28;1391;-71
2022/01/21 01:30:12;;;;;;;;;;;;;;;17.15;21.82;101378.19;5011058;28;840;-71
2022/01/21 01:32:40;;;;;;;;;;;;;;;17.75;21.28;101390.56;5012076;28;1010;-72
2022/01/21 01:35:07;;;;;;;;;;;;;;;16.55;22.28;101381.28;5010645;28;1918;-73
2022/01/21 01:37:54;;;;;;;;;;;;;;;16.27;22.80;101375.69;5010752;28;1336;-71
2022/01/21 01:40:25;;;;;;;;;;;;;;;16.26;22.64;101378.59;5010911;28;777;-71
2022/01/21 01:49:23;;;;;;;;;;;;;;;16.94;22.75;101380.31;5010738;28;979;-70
2022/01/21 01:51:25;;;;;;;;;;;;;;;15.88;23.58;101381.22;5011652;28;1114;-70
2022/01/21 01:53:52;;;;;;;;;;;;;;;15.53;23.23;101388.91;4994155;28;1906;-71
2022/01/21 01:56:21;;;;;;;;;;;;;;;16.21;22.91;101379.91;5010224;28;1424;-70
2022/01/21 01:58:47;;;;;;;;;;;;;;;16.85;22.42;101387.53;5010586;28;1006;-71
2022/01/21 02:01:14;;;;;;;;;;;;;;;16.61;22.72;101390.78;5011845;28;1002;-70
2022/01/21 02:03:41;;;;;;;;;;;;;;;16.38;22.32;101386.50;5011933;28;793;-71
2022/01/21 02:06:08;;;;;;;;;;;;;;;16.88;22.27;101390.84;5009778;28;1419;-72
2022/01/21 02:08:34;;;;;;;;;;;;;;;16.77;21.88;101379.19;5010377;28;1002;-70
2022/01/21 02:11:01;;;;;;;;;;;;;;;16.42;21.92;101369.78;5010255;28;1167;-71
2022/01/21 02:13:30;;;;;;;;;;;;;;;17.16;21.50;101379.09;5011553;28;1964;-72
2022/01/21 02:15:58;;;;;;;;;;;;;;;15.76;22.74;101363.16;4993605;28;1405;-72
2022/01/21 02:21:36;;;;;;;;;;;;;;;17.15;21.58;101385.56;5010253;28;1014;-72
2022/01/21 02:24:04;;;;;;;;;;;;;;;16.79;22.04;101388.16;5010981;28;1186;-72
2022/01/21 02:26:31;;;;;;;;;;;;;;;16.40;22.24;101380.88;5011080;28;1374;-71
2022/01/21 02:28:59;;;;;;;;;;;;;;;17.24;21.29;101392.91;5010097;28;998;-70
2022/01/21 02:31:26;;;;;;;;;;;;;;;17.52;21.20;101391.00;5011501;28;950;-70
2022/01/21 02:33:52;;;;;;;;;;;;;;;16.94;21.24;101389.41;5009246;28;1973;-71
2022/01/21 02:36:20;;;;;;;;;;;;;;;17.87;20.80;101394.78;5010381;28;1408;-69
2022/01/21 02:38:46;;;;;;;;;;;;;;;17.18;21.13;101390.75;5009890;28;798;-70
2022/01/21 02:41:12;;;;;;;;;;;;;;;16.30;22.64;101397.34;5009750;28;691;-70
2022/01/21 02:43:39;;;;;;;;;;;;;;;17.46;21.10;101407.22;5009757;28;923;-71
2022/01/21 02:46:08;;;;;;;;;;;;;;;17.24;21.17;101403.88;5009030;28;1392;-70
2022/01/21 02:48:37;;;;;;;;;;;;;;;17.44;20.83;101421.09;5009742;28;781;-71
2022/01/21 02:51:05;;;;;;;;;;;;;;;17.63;20.77;101424.75;4993289;28;1176;-69
2022/01/21 02:54:03;;;;;;;;;;;;;;;17.71;20.33;101419.34;5009885;28;1914;-69
2022/01/21 02:56:27;;;;;;;;;;;;;;;17.86;20.10;101431.50;5009055;28;1304;-70
2022/01/21 02:58:53;;;;;;;;;;;;;;;16.78;21.58;101430.28;5009821;28;1061;-70
2022/01/21 03:01:21;;;;;;;;;;;;;;;17.74;20.65;101428.13;5009811;28;843;-69
2022/01/21 03:03:47;;;;;;;;;;;;;;;17.48;20.76;101428.00;5009471;28;814;-70
2022/01/21 03:06:16;;;;;;;;;;;;;;;17.37;21.30;101430.94;5009694;28;1329;-69
2022/01/21 03:08:44;;;;;;;;;;;;;;;17.01;21.54;101428.06;5009559;28;987;-70
2022/01/21 03:11:12;;;;;;;;;;;;;;;17.48;21.04;101427.16;5009727;28;856;-69
2022/01/21 03:13:39;;;;;;;;;;;;;;;17.38;21.31;101432.66;5009507;28;1914;-71
2022/01/21 03:16:05;;;;;;;;;;;;;;;17.03;21.52;101426.91;4992715;28;1301;-70
2022/01/21 03:18:31;;;;;;;;;;;;;;;16.59;22.29;101425.72;5010504;28;832;-71
2022/01/21 03:20:58;;;;;;;;;;;;;;;16.35;22.27;101429.78;5009240;28;1259;-72
2022/01/21 03:23:27;;;;;;;;;;;;;;;16.27;22.04;101421.41;5010698;28;1034;-69
2022/01/21 03:25:55;;;;;;;;;;;;;;;15.96;22.81;101421.56;5008807;28;1383;-70
2022/01/21 03:28:39;;;;;;;;;;;;;;;15.46;23.41;101417.84;5009485;28;959;-70
2022/01/21 03:31:05;;;;;;;;;;;;;;;16.38;22.53;101429.47;5009324;28;800;-71
2022/01/21 03:33:32;;;;;;;;;;;;;;;15.89;22.66;101424.88;5009365;28;1979;-71
2022/01/21 03:35:58;;;;;;;;;;;;;;;16.62;22.05;101430.88;5008923;28;1417;-70
2022/01/21 03:38:26;;;;;;;;;;;;;;;16.77;22.55;101434.91;5009092;28;1507;-69
2022/01/21 03:40:53;;;;;;;;;;;;;;;17.33;21.61;101435.00;5026295;28;1488;-68
2022/01/21 03:43:21;;;;;;;;;;;;;;;16.77;22.19;101432.16;5029124;28;999;-68
2022/01/21 03:45:47;;;;;;;;;;;;;;;16.74;22.29;101425.09;5031595;28;781;-71
2022/01/21 03:48:13;;;;;;;;;;;;;;;16.47;22.59;101423.13;5032732;28;998;-69
2022/01/21 03:50:40;;;;;;;;;;;;;;;17.68;21.41;101427.91;5034410;28;825;-71
2022/01/21 03:53:06;;;;;;;;;;;;;;;16.90;21.77;101432.72;5033697;28;998;-70
2022/01/21 03:55:35;;;;;;;;;;;;;;;16.84;21.33;101426.94;5018941;28;1922;-70
2022/01/21 03:58:04;;;;;;;;;;;;;;;16.34;22.23;101422.56;5041630;28;1409;-71
2022/01/21 04:00:37;;;;;;;;;;;;;;;17.39;21.43;101424.28;5035660;28;1058;-69
2022/01/21 04:03:04;;;;;;;;;;;;;;;15.53;23.39;101419.00;5034102;28;903;-71
2022/01/21 04:05:31;;;;;;;;;;;;;;;17.23;21.46;101430.41;5032173;28;1069;-69
2022/01/21 04:07:58;;;;;;;;;;;;;;;17.16;21.79;101433.94;5032322;28;1271;-70
2022/01/21 04:10:25;;;;;;;;;;;;;;;17.13;21.70;101437.84;5032245;28;899;-71
2022/01/21 04:12:51;;;;;;;;;;;;;;;17.07;21.36;101427.47;5033335;28;1021;-69
2022/01/21 04:15:17;;;;;;;;;;;;;;;16.31;22.48;101431.06;5015272;28;1982;-70
2022/01/21 04:17:45;;;;;;;;;;;;;;;16.74;21.78;101425.09;5015650;28;1415;-70
2022/01/21 04:20:13;;;;;;;;;;;;;;;16.44;22.31;101439.00;5032188;28;986;-71
2022/01/21 04:22:39;;;;;;;;;;;;;;;17.12;21.46;101438.84;5015831;28;1140;-71
2022/01/21 04:25:06;;;;;;;;;;;;;;;16.23;21.87;101427.19;5031992;28;915;-71
2022/01/21 04:27:33;;;;;;;;;;;;;;;16.41;22.17;101451.13;5032553;28;1326;-71
2022/01/21 04:30:00;;;;;;;;;;;;;;;16.73;22.02;101459.00;5032125;28;1046;-70
2022/01/21 04:32:30;;;;;;;;;;;;;;;16.44;21.82;101448.06;5031971;28;934;-71
2022/01/21 04:34:59;;;;;;;;;;;;;;;16.61;22.15;101459.28;5031501;28;1985;-71
2022/01/21 04:37:25;;;;;;;;;;;;;;;16.48;21.81;101456.88;5032277;28;1325;-71
2022/01/21 04:40:00;;;;;;;;;;;;;;;15.54;22.92;101467.25;5032352;28;1018;-68
2022/01/21 04:47:56;;;;;;;;;;;;;;;15.61;22.83;101453.03;5032017;28;1322;-71
2022/01/21 04:50:26;;;;;;;;;;;;;;;16.70;21.66;101470.25;5031936;28;887;-72
2022/01/21 04:52:55;;;;;;;;;;;;;;;16.11;22.40;101460.34;5032529;28;1148;-72
2022/01/21 04:55:36;;;;;;;;;;;;;;;16.24;21.96;101459.03;5031949;28;1911;-71
2022/01/21 04:58:03;;;;;;;;;;;;;;;17.00;21.25;101470.22;5021109;23;3779;-73
2022/01/21 05:00:30;;;;;;;;;;;;;;;15.86;22.28;101457.13;4992201;28;899;-72
2022/01/21 05:02:58;;;;;;;;;;;;;;;15.31;23.00;101463.88;4992054;28;1303;-72
2022/01/21 05:05:26;;;;;;;;;;;;;;;15.62;22.74;101476.63;4991742;28;841;-72
2022/01/21 05:07:54;;;;;;;;;;;;;;;15.72;21.99;101463.84;5003990;28;1309;-72
2022/01/21 05:10:23;;;;;;;;;;;;;;;15.94;22.14;101464.63;5011516;28;852;-71
2022/01/21 05:12:49;;;;;;;;;;;;;;;16.39;21.69;101467.72;5011775;28;930;-71
2022/01/21 05:15:22;;;;;;;;;;;;;;;15.23;22.52;101461.81;5011238;28;1973;-73
2022/01/21 05:17:50;;;;;;;;;;;;;;;16.63;21.82;101455.41;5011572;28;1403;-74
2022/01/21 05:20:32;;;;;;;;;;;;;;;15.90;21.86;101458.59;5015593;28;1846;-73
2022/01/21 05:23:07;;;;;;;;;;;;;;;16.65;21.68;101469.84;5027595;28;1066;-74
2022/01/21 05:25:35;;;;;;;;;;;;;;;15.93;21.96;101451.94;5011011;28;1182;-74
2022/01/21 05:28:01;;;;;;;;;;;;;;;16.11;21.84;101465.81;5013241;28;1507;-73
2022/01/21 05:30:31;;;;;;;;;;;;;;;16.50;21.16;101460.31;5011763;28;1241;-74
2022/01/21 05:33:13;;;;;;;;;;;;;;;16.23;21.77;101471.03;5011603;28;1014;-72
2022/01/21 05:35:59;;;;;;;;;;;;;;;16.08;21.81;101472.44;5015740;28;1914;-73
2022/01/21 05:38:38;;;;;;;;;;;;;;;15.49;22.71;101474.16;5019373;28;1341;-70
2022/01/21 05:41:26;;;;;;;;;;;;;;;15.69;22.19;101467.72;5011496;28;1101;-72
2022/01/21 05:44:19;;;;;;;;;;;;;;;16.55;21.40;101461.63;5011098;28;1203;-74
2022/01/21 05:47:03;;;;;;;;;;;;;;;15.63;21.72;101473.75;5010711;28;1476;-71
2022/01/21 05:49:39;;;;;;;;;;;;;;;15.18;22.67;101480.50;5012204;28;1506;-73
2022/01/21 05:52:35;;;;;;;;;;;;;;;16.20;21.88;101468.53;5012168;28;1149;-75
2022/01/21 05:55:17;;;;;;;;;;;;;;;15.89;21.94;101473.28;5010460;28;2369;-72
2022/01/21 05:58:12;;;;;;;;;;;;;;;15.35;22.32;101468.06;5010744;28;1374;-73
2022/01/21 06:00:43;;;;;;;;;;;;;;;16.22;21.35;101468.41;5010593;28;1043;-74
2022/01/21 06:03:10;;;;;;;;;;;;;;;15.68;21.84;101466.00;4994060;28;1160;-74
2022/01/21 06:05:37;;;;;;;;;;;;;;;15.95;21.71;101472.69;5012150;28;950;-73
2022/01/21 06:08:05;;;;;;;;;;;;;;;16.37;21.22;101469.72;5010493;28;1310;-74
2022/01/21 06:10:32;;;;;;;;;;;;;;;15.29;22.08;101465.00;5010515;28;811;-73
2022/01/21 06:12:58;;;;;;;;;;;;;;;15.94;21.82;101464.63;5010362;28;1057;-72
2022/01/21 06:15:25;;;;;;;;;;;;;;;15.81;21.71;101471.25;5009993;28;1903;-74
2022/01/21 06:17:51;;;;;;;;;;;;;;;15.73;22.01;101480.13;5011392;28;1384;-71
2022/01/21 06:20:17;;;;;;;;;;;;;;;16.79;20.93;101484.09;5011703;28;832;-74
2022/01/21 06:22:44;;;;;;;;;;;;;;;15.33;22.15;101481.00;5011433;28;995;-74
2022/01/21 06:25:11;;;;;;;;;;;;;;;16.16;21.69;101479.94;5011353;28;804;-74
2022/01/21 06:27:39;;;;;;;;;;;;;;;15.77;21.94;101479.84;5011481;28;1305;-72
2022/01/21 06:30:07;;;;;;;;;;;;;;;16.38;21.22;101479.66;5011294;28;1005;-73
2022/01/21 06:32:33;;;;;;;;;;;;;;;15.81;21.63;101484.94;5011413;28;1146;-72
2022/01/21 06:34:59;;;;;;;;;;;;;;;15.32;21.95;101492.94;5009366;28;1985;-72
2022/01/21 06:37:25;;;;;;;;;;;;;;;15.14;22.50;101491.84;5011290;28;1430;-74
2022/01/21 06:39:53;;;;;;;;;;;;;;;15.49;21.83;101487.84;5011928;28;1113;-72
2022/01/21 06:42:23;;;;;;;;;;;;;;;15.84;21.47;101489.25;5011172;28;931;-72
2022/01/21 06:44:49;;;;;;;;;;;;;;;15.06;22.17;101493.41;5011084;28;776;-73
2022/01/21 06:47:16;;;;;;;;;;;;;;;15.20;21.70;101494.03;5010461;28;1337;-73
2022/01/21 06:49:42;;;;;;;;;;;;;;;16.29;20.77;101502.44;4996258;28;1538;-73
2022/01/21 06:52:08;;;;;;;;;;;;;;;15.85;21.50;101496.47;4998463;28;1331;-74
2022/01/21 06:54:34;;;;;;;;;;;;;;;16.34;20.83;101502.00;5009695;28;1990;-74
2022/01/21 06:57:01;;;;;;;;;;;;;;;15.90;21.14;101497.78;5012394;28;1517;-73
2022/01/21 06:59:28;;;;;;;;;;;;;;;16.27;21.10;101498.13;5030698;28;1165;-75
2022/01/21 07:01:55;;;;;;;;;;;;;;;15.07;22.31;101496.97;5020935;28;1267;-74
2022/01/21 07:04:21;;;;;;;;;;;;;;;15.80;21.36;101515.16;5014544;28;1319;-72
2022/01/21 07:06:47;;;;;;;;;;;;;;;16.16;21.12;101512.81;5010395;28;1525;-73
2022/01/21 07:09:13;;;;;;;;;;;;;;;15.60;21.76;101512.34;4999737;28;1398;-74
2022/01/21 07:11:40;;;;;;;;;;;;;;;15.47;21.96;101520.78;5010936;28;1502;-76
2022/01/21 07:14:06;;;;;;;;;;;;;;;15.98;21.67;101513.50;5012868;28;1514;-74
2022/01/21 07:16:34;;;;;;;;;;;;;;;15.92;21.76;101508.59;5015412;28;1991;-73
2022/01/21 07:19:00;;;;;;;;;;;;;;;16.51;21.20;101504.00;5000650;28;1497;-75
2022/01/21 07:21:26;;;;;;;;;;;;;;;16.13;21.32;101504.84;5014387;28;1542;-75
2022/01/21 07:23:53;;;;;;;;;;;;;;;15.96;21.60;101504.56;5012792;28;1502;-73
2022/01/21 07:26:19;;;;;;;;;;;;;;;15.36;22.00;101509.94;5013399;28;1530;-73
2022/01/21 07:28:45;;;;;;;;;;;;;;;15.40;22.15;101517.72;5013226;28;1512;-75
2022/01/21 07:31:11;;;;;;;;;;;;;;;15.76;21.70;101517.28;5010479;28;1494;-73
2022/01/21 07:33:39;;;;;;;;;;;;;;;15.45;22.22;101519.22;5013361;28;859;-72
2022/01/21 07:36:05;;;;;;;;;;;;;;;15.67;22.21;101529.97;5004936;28;1983;-74
2022/01/21 07:38:32;;;;;;;;;;;;;;;16.45;21.35;101520.16;5001943;28;1522;-74
2022/01/21 07:40:58;;;;;;;;;;;;;;;16.43;21.53;101516.72;5012497;28;1452;-74
2022/01/21 07:43:24;;;;;;;;;;;;;;;17.86;20.02;101540.50;5012520;28;1456;-73
2022/01/21 07:45:51;;;;;;;;;;;;;;;16.64;21.03;101539.38;5013206;28;1593;-73
2022/01/21 07:48:17;;;;;;;;;;;;;;;16.90;21.13;101536.94;5013885;28;1396;-76
2022/01/21 07:50:45;;;;;;;;;;;;;;;16.86;21.14;101537.31;5013967;28;954;-76
2022/01/21 07:53:11;;;;;;;;;;;;;;;16.85;21.04;101528.25;5014279;28;1561;-74
2022/01/21 07:55:37;;;;;;;;;;;;;;;17.01;20.72;101527.66;5012636;28;1907;-75
2022/01/21 07:58:04;;;;;;;;;;;;;;;17.60;20.50;101530.22;5013756;28;1466;-74
2022/01/21 08:00:31;;;;;;;;;;;;;;;18.07;19.75;101532.03;5013794;28;1332;-74
2022/01/21 08:02:57;;;;;;;;;;;;;;;17.82;19.94;101539.91;5013243;28;1208;-73
2022/01/21 08:05:28;;;;;;;;;;;;;;;17.82;20.24;101541.81;5011980;28;974;-75
2022/01/21 08:07:55;;;;;;;;;;;;;;;17.98;20.29;101543.94;5013219;28;1413;-74
2022/01/21 08:10:21;;;;;;;;;;;;;;;18.18;19.87;101551.00;5013616;28;1501;-76
2022/01/21 08:12:48;;;;;;;;;;;;;;;18.29;19.79;101549.06;5013645;28;1576;-75
2022/01/21 08:15:14;;;;;;;;;;;;;;;19.19;18.77;101538.88;5015057;28;1984;-76
2022/01/21 08:17:40;;;;;;;;;;;;;;;18.62;19.47;101539.25;5016388;28;1404;-75
2022/01/21 08:20:07;;;;;;;;;;;;;;;19.79;18.75;101539.91;5010177;28;1070;-75
2022/01/21 08:22:33;;;;;;;;;;;;;;;19.22;19.14;101540.47;5013105;28;1688;-72
2022/01/21 08:25:01;;;;;;;;;;;;;;;18.93;19.33;101536.13;5009218;28;1460;-75
2022/01/21 08:27:27;;;;;;;;;;;;;;;19.38;19.25;101545.19;5010747;28;1456;-76
2022/01/21 08:29:54;;;;;;;;;;;;;;;19.64;19.02;101536.03;5011342;28;1298;-73
2022/01/21 08:32:21;;;;;;;;;;;;;;;19.80;19.02;101541.63;4992338;28;1576;-74
2022/01/21 08:34:49;;;;;;;;;;;;;;;20.34;18.61;101532.19;5010532;28;1632;-76
2022/01/21 08:37:15;;;;;;;;;;;;;;;20.16;18.91;101544.22;5012896;28;1981;-74
2022/01/21 08:39:43;;;;;;;;;;;;;;;19.65;19.28;101544.13;5013323;28;813;-74
2022/01/21 08:42:10;;;;;;;;;;;;;;;20.50;18.69;101542.38;5011740;28;1581;-77
2022/01/21 08:44:37;;;;;;;;;;;;;;;19.39;19.62;101541.44;5013241;28;1294;-76
2022/01/21 08:47:03;;;;;;;;;;;;;;;20.02;18.88;101550.34;4999865;28;2038;-77
2022/01/21 08:49:30;;;;;;;;;;;;;;;20.58;18.70;101545.97;5013851;28;854;-78
2022/01/21 08:51:57;;;;;;;;;;;;;;;18.89;20.17;101542.97;5014381;28;1247;-77
2022/01/21 08:54:24;;;;;;;;;;;;;;;19.27;19.54;101549.09;5021309;28;1263;-77
2022/01/21 08:56:52;;;;;;;;;;;;;;;19.54;19.14;101548.03;5023905;28;1910;-77
2022/01/21 08:59:20;;;;;;;;;;;;;;;20.19;19.16;101535.59;5033044;28;895;-78
2022/01/21 09:01:48;;;;;;;;;;;;;;;21.34;18.30;101536.63;5029633;28;1505;-75
2022/01/21 09:04:15;;;;;;;;;;;;;;;20.78;18.72;101542.06;5012284;28;1474;-76
2022/01/21 09:06:41;;;;;;;;;;;;;;;19.88;19.37;101547.22;5011376;28;1534;-73
2022/01/21 09:09:07;;;;;;;;;;;;;;;20.78;18.31;101544.81;5007181;28;1545;-74
2022/01/21 09:11:34;;;;;;;;;;;;;;;20.40;18.92;101548.03;5020409;28;1502;-76
2022/01/21 09:14:01;;;;;;;;;;;;;;;21.15;18.53;101555.34;5029704;28;1525;-77
2022/01/21 09:16:29;;;;;;;;;;;;;;;20.49;19.17;101560.78;5017431;28;1910;-76
2022/01/21 09:18:57;;;;;;;;;;;;;;;21.27;18.46;101546.69;5013665;28;1533;-76
2022/01/21 09:21:24;;;;;;;;;;;;;;;19.05;19.94;101555.97;5013262;28;1533;-75
2022/01/21 09:23:51;;;;;;;;;;;;;;;20.06;19.46;101558.09;5018152;28;1489;-74
2022/01/21 09:26:18;;;;;;;;;;;;;;;20.07;19.28;101559.00;5014291;28;974;-75
2022/01/21 09:28:45;;;;;;;;;;;;;;;20.62;18.64;101563.06;5011891;28;1569;-75
2022/01/21 09:31:12;;;;;;;;;;;;;;;21.65;18.21;101558.00;5012597;28;836;-76
2022/01/21 09:33:40;;;;;;;;;;;;;;;21.27;18.90;101558.56;5009893;28;1581;-74
2022/01/21 09:36:07;;;;;;;;;;;;;;;21.79;17.96;101565.53;5005327;28;1918;-75
2022/01/21 09:38:33;;;;;;;;;;;;;;;20.83;19.35;101550.69;5000285;28;1500;-76
2022/01/21 09:41:00;;;;;;;;;;;;;;;19.68;20.21;101560.34;5010610;28;1470;-73
2022/01/21 09:43:26;;;;;;;;;;;;;;;21.18;18.75;101552.22;4992769;28;1561;-76
2022/01/21 09:45:54;;;;;;;;;;;;;;;20.81;19.10;101553.63;5010085;28;1526;-75
2022/01/21 09:48:23;;;;;;;;;;;;;;;21.06;19.19;101548.09;5009277;28;1486;-75
2022/01/21 09:50:52;;;;;;;;;;;;;;;20.97;18.81;101547.22;4999023;28;1485;-76
2022/01/21 09:53:19;;;;;;;;;;;;;;;22.48;17.99;101550.19;5009892;28;1546;-76
2022/01/21 09:55:46;;;;;;;;;;;;;;;22.23;18.06;101551.19;5009754;28;1922;-74
2022/01/21 09:58:12;;;;;;;;;;;;;;;22.10;18.11;101548.16;5011436;28;1316;-73
2022/01/21 10:00:41;;;;;;;;;;;;;;;22.73;18.02;101550.88;5010378;28;1292;-75
2022/01/21 10:03:07;;;;;;;;;;;;;;;22.67;17.39;101549.69;5011070;28;1362;-75
2022/01/21 10:05:34;;;;;;;;;;;;;;;21.35;18.59;101554.94;5010777;28;1573;-76
2022/01/21 10:08:02;;;;;;;;;;;;;;;21.44;18.61;101561.31;4995646;28;1439;-74
2022/01/21 10:10:29;;;;;;;;;;;;;;;21.97;18.35;101556.16;5010806;28;1479;-76
2022/01/21 10:13:01;;;;;;;;;;;;;;;21.95;18.81;101569.28;5010453;28;1459;-74
2022/01/21 10:15:28;;;;;;;;;;;;;;;21.87;18.78;101571.06;5011161;28;1014;-75
2022/01/21 10:18:05;;;;;;;;;;;;;;;22.06;18.71;101578.03;5011146;28;1914;-75
2022/01/21 10:20:31;;;;;;;;;;;;;;;22.44;17.84;101582.88;5008710;28;1581;-74
2022/01/21 10:22:58;;;;;;;;;;;;;;;23.24;17.65;101566.88;5010224;28;1482;-74
2022/01/21 10:25:26;;;;;;;;;;;;;;;23.43;17.32;101573.78;5010495;28;1585;-74
2022/01/21 10:27:53;;;;;;;;;;;;;;;22.11;18.20;101573.88;4989433;28;1502;-76
2022/01/21 10:30:20;;;;;;;;;;;;;;;21.65;18.30;101567.16;5010419;28;1663;-75
2022/01/21 10:32:47;;;;;;;;;;;;;;;20.74;19.23;101571.91;5010756;28;1275;-76
2022/01/21 10:35:20;;;;;;;;;;;;;;;22.17;18.40;101571.25;5010377;28;1205;-76
2022/01/21 10:37:46;;;;;;;;;;;;;;;23.52;17.29;101571.78;5010690;28;1980;-74
2022/01/21 10:40:15;;;;;;;;;;;;;;;22.39;18.03;101574.25;5010896;28;1566;-76
2022/01/21 10:42:43;;;;;;;;;;;;;;;22.95;17.49;101571.25;5009489;28;1151;-75
2022/01/21 10:45:11;;;;;;;;;;;;;;;23.51;17.29;101565.38;5009918;28;1382;-76
2022/01/21 10:47:38;;;;;;;;;;;;;;;21.83;18.73;101574.34;5008322;28;1490;-78
2022/01/21 10:50:06;;;;;;;;;;;;;;;21.76;18.80;101560.38;4988252;28;1487;-74
2022/01/21 10:52:34;;;;;;;;;;;;;;;21.29;19.22;101561.19;5030655;28;1037;-77
2022/01/21 10:55:00;;;;;;;;;;;;;;;22.68;18.53;101556.94;5026117;28;1744;-76
2022/01/21 10:57:28;;;;;;;;;;;;;;;22.08;18.68;101564.03;5024952;23;1994;-73
2022/01/21 10:59:58;;;;;;;;;;;;;;;20.94;20.19;101561.38;4985747;28;1731;-74
2022/01/21 11:02:30;;;;;;;;;;;;;;;19.26;20.90;101566.63;4971158;28;1499;-73
2022/01/21 11:04:58;;;;;;;;;;;;;;;22.26;18.74;101563.78;4959482;28;1318;-75
2022/01/21 11:07:39;;;;;;;;;;;;;;;21.59;19.13;101569.75;4971576;28;1424;-73
2022/01/21 11:10:06;;;;;;;;;;;;;;;21.82;18.95;101564.31;4952158;29;1429;-75
2022/01/21 11:12:33;;;;;;;;;;;;;;;20.90;19.37;101571.03;4976186;28;1577;-75
2022/01/21 11:15:03;;;;;;;;;;;;;;;21.00;19.90;101565.34;4971016;28;1483;-73
2022/01/21 11:17:30;;;;;;;;;;;;;;;22.04;18.45;101573.72;4970848;28;1928;-73
2022/01/21 11:20:03;;;;;;;;;;;;;;;22.11;18.87;101568.34;4987005;28;1449;-75
2022/01/21 11:22:30;;;;;;;;;;;;;;;21.93;19.21;101563.94;4971807;28;1630;-74
2022/01/21 11:24:59;;;;;;;;;;;;;;;21.52;18.96;101562.13;4986227;28;1830;-74
2022/01/21 11:27:25;;;;;;;;;;;;;;;22.02;18.55;101561.97;4971668;28;1766;-73
2022/01/21 11:29:53;;;;;;;;;;;;;;;21.85;18.69;101562.06;4969822;28;1238;-76
2022/01/21 11:32:20;;;;;;;;;;;;;;;22.26;18.42;101558.25;4972755;28;1621;-74
2022/01/21 11:34:47;;;;;;;;;;;;;;;24.29;17.04;101550.22;4987801;28;1550;-75
2022/01/21 11:37:14;;;;;;;;;;;;;;;23.50;17.17;101538.69;4973245;28;1939;-74
2022/01/21 11:39:40;;;;;;;;;;;;;;;21.21;19.48;101551.84;4973700;28;1344;-75
2022/01/21 11:42:07;;;;;;;;;;;;;;;22.37;18.05;101551.47;4970911;28;1245;-76
2022/01/21 11:44:37;;;;;;;;;;;;;;;22.38;18.24;101550.41;4971377;28;1649;-75
2022/01/21 11:47:15;;;;;;;;;;;;;;;23.20;17.31;101538.69;4971328;28;1562;-75
2022/01/21 11:49:44;;;;;;;;;;;;;;;21.47;17.49;101536.97;4981707;28;1429;-73
2022/01/21 11:52:12;;;;;;;;;;;;;;;22.55;17.54;101538.22;4970885;28;1566;-73
2022/01/21 11:54:39;;;;;;;;;;;;;;;23.16;17.28;101544.81;4972628;28;967;-74
2022/01/21 11:57:06;;;;;;;;;;;;;;;23.16;17.25;101545.66;4972263;28;1918;-76
2022/01/21 11:59:40;;;;;;;;;;;;;;;22.71;17.12;101539.13;4973474;28;1273;-76
2022/01/21 12:02:18;;;;;;;;;;;;;;;22.42;16.90;101537.09;4972228;28;1269;-74
2022/01/21 12:04:47;;;;;;;;;;;;;;;23.01;17.57;101544.72;4966980;28;1213;-74
2022/01/21 12:07:32;;;;;;;;;;;;;;;22.56;17.24;101534.38;4984500;28;1740;-73
2022/01/21 12:09:59;;;;;;;;;;;;;;;21.81;17.61;101532.22;4967860;28;1329;-73
2022/01/21 12:12:45;;;;;;;;;;;;;;;21.39;17.97;101529.56;4969580;28;1496;-73
2022/01/21 12:15:21;;;;;;;;;;;;;;;21.82;17.53;101540.34;4970956;28;1535;-73
2022/01/21 12:17:52;;;;;;;;;;;;;;;22.69;17.21;101532.91;4973944;28;1911;-72
2022/01/21 12:20:30;;;;;;;;;;;;;;;23.23;16.92;101543.00;4973650;28;1451;-74
2022/01/21 12:23:08;;;;;;;;;;;;;;;22.62;17.15;101541.09;4972117;28;1336;-75
2022/01/21 12:25:34;;;;;;;;;;;;;;;23.04;16.95;101531.38;4974243;28;1431;-75
2022/01/21 12:28:25;;;;;;;;;;;;;;;21.60;18.01;101533.66;4972608;28;1610;-75
2022/01/21 12:30:52;;;;;;;;;;;;;;;21.88;17.03;101536.84;4954772;28;1663;-72
2022/01/21 12:33:42;;;;;;;;;;;;;;;23.40;16.05;101530.69;4972731;28;947;-74
2022/01/21 12:36:12;;;;;;;;;;;;;;;22.60;16.77;101518.28;4966412;28;1574;-74
2022/01/21 12:41:33;;;;;;;;;;;;;;;21.51;17.45;101518.13;4976155;28;1483;-73
2022/01/21 12:44:00;;;;;;;;;;;;;;;21.31;17.42;101521.31;4975502;28;1570;-75
2022/01/21 12:46:30;;;;;;;;;;;;;;;21.89;17.00;101526.66;4974868;28;1546;-75
2022/01/21 12:48:57;;;;;;;;;;;;;;;22.28;16.65;101535.94;4976064;28;1530;-75
2022/01/21 12:52:11;;;;;;;;;;;;;;;21.87;16.38;101529.59;4954583;28;1078;-74
2022/01/21 12:57:25;;;;;;;;;;;;;;;23.51;16.26;101509.09;4989788;28;2023;-74
2022/01/21 12:59:54;;;;;;;;;;;;;;;23.49;15.63;101508.44;4976731;28;1918;-76
2022/01/21 13:02:24;;;;;;;;;;;;;;;23.91;15.19;101515.22;4988068;28;1372;-74
2022/01/21 13:04:52;;;;;;;;;;;;;;;21.63;16.93;101513.97;4973152;28;1523;-74
2022/01/21 13:07:27;;;;;;;;;;;;;;;25.17;14.56;101509.19;4972096;28;1398;-73
2022/01/21 13:10:02;;;;;;;;;;;;;;;24.70;15.04;101513.53;4973449;28;1591;-74
2022/01/21 13:13:00;;;;;;;;;;;;;;;24.74;14.71;101509.28;4972692;28;2205;-75
2022/01/21 13:15:37;;;;;;;;;;;;;;;24.61;14.96;101517.47;4973157;28;1484;-75
2022/01/21 13:18:03;;;;;;;;;;;;;;;25.44;14.26;101512.22;4972222;28;1974;-76
2022/01/21 13:20:30;;;;;;;;;;;;;;;25.18;14.56;101508.13;4973233;28;1570;-75
2022/01/21 13:22:58;;;;;;;;;;;;;;;25.61;14.35;101501.59;4974008;28;1574;-76
2022/01/21 13:25:25;;;;;;;;;;;;;;;24.95;14.37;101488.09;4973769;28;1383;-74
2022/01/21 13:27:53;;;;;;;;;;;;;;;24.27;14.53;101488.53;4976020;28;1388;-74
2022/01/21 13:30:20;;;;;;;;;;;;;;;25.29;14.02;101494.75;4975072;28;1594;-74
2022/01/21 13:32:47;;;;;;;;;;;;;;;24.30;14.85;101494.53;4955779;28;1260;-75
2022/01/21 13:35:14;;;;;;;;;;;;;;;24.69;14.26;101495.16;4989208;28;1550;-73
2022/01/21 13:37:41;;;;;;;;;;;;;;;23.94;14.65;101500.94;4988304;28;1990;-74